DAOR/CBH METAR and TAF weather

Enter ICAO airport designator
Station Type Date Time Source
DAOR METAR 2020/08/14 02:00 UTC NOAA

DAOR 140200Z 08006KT 9999 FEW033 32/07 Q1019


Station Type Date Time Source
DAOR Decoded METAR 2020/08/14 02:00 UTC NOAA

Bechar, Algeria (DAOR) 31-37N 002-14W 773M
Aug 13, 2020 - 10:00 PM EDT / 2020.08.14 0200 UTC
Wind: from the E (080 degrees) at 7 MPH (6 KT):0
Visibility: greater than 7 mile(s):0
Sky conditions: mostly clear
Temperature: 89 F (32 C)
Dew Point: 44 F (7 C)
Relative Humidity: 21%
Pressure (altimeter): 30.09 in. Hg (1019 hPa)
ob: DAOR 140200Z 08006KT 9999 FEW033 32/07 Q1019
cycle: 2

Station Type Date Time Source
DAOR TAF 2017/11/09 18:03 UTC NOAA

TAF DAOR 091700Z 0918/1009 35010KT 6000 FEW033 SCT100
TEMPO 0918/0924 3000 BLSA PROB40
TEMPO 0918/0924 35020G35KT 2000 -TSRA FEW030CB

Example: see airport list